Terminal Aerodrome Forecast
Issued by NWS

Home | Current Version | Previous Version | Text Only | Print | Product List | Glossary On
Versions: 1 2 3 4 5 6 7 8 9 10 11 12 13
974
FTUS42 KTBW 262327
TAFRSW
TAF
KRSW 262327Z 2700/2724 24008KT P6SM FEW050
     FM270200 13005KT P6SM FEW050
     FM271400 17011KT P6SM FEW030
     FM271700 23012KT P6SM SCT050=

USA.gov is the U.S. government's official web portal to all federal, state and local government web resources and services.